sensor_id;sensor_type;location;lat;lon;timestamp;temperature;humidity
64650;HTU21D;51061;45.258;38.112;2022-09-03T00:10:28;23.23;38.90
64650;HTU21D;51061;45.258;38.112;2022-09-03T00:12:58;23.22;38.84
64650;HTU21D;51061;45.258;38.112;2022-09-03T00:15:28;23.18;38.83
64650;HTU21D;51061;45.258;38.112;2022-09-03T00:18:08;23.14;38.89
64650;HTU21D;51061;45.258;38.112;2022-09-03T00:20:42;23.12;38.94
64650;HTU21D;51061;45.258;38.112;2022-09-03T00:23:13;23.10;39.01
64650;HTU21D;51061;45.258;38.112;2022-09-03T00:25:44;23.08;38.92
64650;HTU21D;51061;45.258;38.112;2022-09-03T00:28:18;23.02;38.99
64650;HTU21D;51061;45.258;38.112;2022-09-03T00:30:46;22.99;39.03
64650;HTU21D;51061;45.258;38.112;2022-09-03T00:33:27;22.94;39.13
64650;HTU21D;51061;45.258;38.112;2022-09-03T00:36:07;22.88;39.28
64650;HTU21D;51061;45.258;38.112;2022-09-03T00:38:36;22.83;39.36
64650;HTU21D;51061;45.258;38.112;2022-09-03T00:41:46;22.77;39.45
64650;HTU21D;51061;45.258;38.112;2022-09-03T00:46:54;22.68;39.66
64650;HTU21D;51061;45.258;38.112;2022-09-03T00:49:41;22.61;39.78
64650;HTU21D;51061;45.258;38.112;2022-09-03T01:00:13;22.43;40.42
64650;HTU21D;51061;45.258;38.112;2022-09-03T01:03:15;22.39;40.40
64650;HTU21D;51061;45.258;38.112;2022-09-03T01:14:18;22.21;40.80
64650;HTU21D;51061;45.258;38.112;2022-09-03T01:19:38;22.13;41.21
64650;HTU21D;51061;45.258;38.112;2022-09-03T01:22:21;22.10;41.36
64650;HTU21D;51061;45.258;38.112;2022-09-03T01:30:29;21.99;41.70
64650;HTU21D;51061;45.258;38.112;2022-09-03T01:46:41;21.73;42.26
64650;HTU21D;51061;45.258;38.112;2022-09-03T01:49:23;21.70;42.36
64650;HTU21D;51061;45.258;38.112;2022-09-03T01:52:02;21.66;42.30
64650;HTU21D;51061;45.258;38.112;2022-09-03T02:00:17;21.61;42.42
64650;HTU21D;51061;45.258;38.112;2022-09-03T02:02:47;21.58;42.49
64650;HTU21D;51061;45.258;38.112;2022-09-03T02:08:03;21.54;42.52
64650;HTU21D;51061;45.258;38.112;2022-09-03T02:13:24;21.50;42.74
64650;HTU21D;51061;45.258;38.112;2022-09-03T02:15:52;21.49;42.81
64650;HTU21D;51061;45.258;38.112;2022-09-03T02:18:27;21.47;42.84
64650;HTU21D;51061;45.258;38.112;2022-09-03T02:20:56;21.45;43.06
64650;HTU21D;51061;45.258;38.112;2022-09-03T02:23:24;21.42;43.17
64650;HTU21D;51061;45.258;38.112;2022-09-03T02:25:55;21.37;43.25
64650;HTU21D;51061;45.258;38.112;2022-09-03T02:28:22;21.34;43.42
64650;HTU21D;51061;45.258;38.112;2022-09-03T02:30:48;21.32;43.54
64650;HTU21D;51061;45.258;38.112;2022-09-03T02:33:15;21.29;43.60
64650;HTU21D;51061;45.258;38.112;2022-09-03T02:35:42;21.27;43.71
64650;HTU21D;51061;45.258;38.112;2022-09-03T02:38:39;21.16;43.64
64650;HTU21D;51061;45.258;38.112;2022-09-03T02:41:05;21.00;43.72
64650;HTU21D;51061;45.258;38.112;2022-09-03T02:46:33;21.04;43.93
64650;HTU21D;51061;45.258;38.112;2022-09-03T02:49:01;21.03;44.29
64650;HTU21D;51061;45.258;38.112;2022-09-03T02:51:30;20.86;44.07
64650;HTU21D;51061;45.258;38.112;2022-09-03T02:53:56;20.92;44.38
64650;HTU21D;51061;45.258;38.112;2022-09-03T02:56:22;20.77;44.22
64650;HTU21D;51061;45.258;38.112;2022-09-03T02:58:53;20.86;44.51
64650;HTU21D;51061;45.258;38.112;2022-09-03T03:01:19;20.86;44.61
64650;HTU21D;51061;45.258;38.112;2022-09-03T03:03:45;20.89;44.70
64650;HTU21D;51061;45.258;38.112;2022-09-03T03:06:12;20.89;44.84
64650;HTU21D;51061;45.258;38.112;2022-09-03T03:08:39;20.89;44.90
64650;HTU21D;51061;45.258;38.112;2022-09-03T03:11:05;20.88;44.96
64650;HTU21D;51061;45.258;38.112;2022-09-03T03:13:32;20.89;45.09
64650;HTU21D;51061;45.258;38.112;2022-09-03T03:16:01;20.90;45.12
64650;HTU21D;51061;45.258;38.112;2022-09-03T03:18:27;20.90;45.22
64650;HTU21D;51061;45.258;38.112;2022-09-03T03:20:53;20.88;45.36
64650;HTU21D;51061;45.258;38.112;2022-09-03T03:23:20;20.88;45.48
64650;HTU21D;51061;45.258;38.112;2022-09-03T03:25:46;20.89;45.67
64650;HTU21D;51061;45.258;38.112;2022-09-03T03:28:12;20.87;45.68
64650;HTU21D;51061;45.258;38.112;2022-09-03T03:30:39;20.89;45.81
64650;HTU21D;51061;45.258;38.112;2022-09-03T03:33:08;20.90;45.80
64650;HTU21D;51061;45.258;38.112;2022-09-03T03:35:35;20.93;45.83
64650;HTU21D;51061;45.258;38.112;2022-09-03T03:38:01;20.94;45.91
64650;HTU21D;51061;45.258;38.112;2022-09-03T03:40:27;20.96;45.93
64650;HTU21D;51061;45.258;38.112;2022-09-03T03:42:56;21.01;45.98
64650;HTU21D;51061;45.258;38.112;2022-09-03T03:45:22;21.02;45.95
64650;HTU21D;51061;45.258;38.112;2022-09-03T03:47:48;21.06;45.90
64650;HTU21D;51061;45.258;38.112;2022-09-03T03:50:14;21.09;45.88
64650;HTU21D;51061;45.258;38.112;2022-09-03T03:52:41;21.14;45.89
64650;HTU21D;51061;45.258;38.112;2022-09-03T03:55:08;21.19;45.88
64650;HTU21D;51061;45.258;38.112;2022-09-03T03:57:34;21.23;45.84
64650;HTU21D;51061;45.258;38.112;2022-09-03T04:00:01;21.30;45.77
64650;HTU21D;51061;45.258;38.112;2022-09-03T04:02:40;21.37;45.68
64650;HTU21D;51061;45.258;38.112;2022-09-03T04:05:06;21.46;45.61
64650;HTU21D;51061;45.258;38.112;2022-09-03T04:07:32;21.52;45.50
64650;HTU21D;51061;45.258;38.112;2022-09-03T04:09:58;21.47;45.39
64650;HTU21D;51061;45.258;38.112;2022-09-03T04:12:26;21.62;45.28
64650;HTU21D;51061;45.258;38.112;2022-09-03T04:14:52;21.68;45.28
64650;HTU21D;51061;45.258;38.112;2022-09-03T04:17:18;21.76;45.19
64650;HTU21D;51061;45.258;38.112;2022-09-03T04:19:44;21.72;45.09
64650;HTU21D;51061;45.258;38.112;2022-09-03T04:22:12;21.85;45.06
64650;HTU21D;51061;45.258;38.112;2022-09-03T04:24:40;21.94;44.93
64650;HTU21D;51061;45.258;38.112;2022-09-03T04:27:06;22.06;44.78
64650;HTU21D;51061;45.258;38.112;2022-09-03T04:29:32;22.04;44.73
64650;HTU21D;51061;45.258;38.112;2022-09-03T04:31:58;22.18;44.63
64650;HTU21D;51061;45.258;38.112;2022-09-03T04:34:42;22.26;44.51
64650;HTU21D;51061;45.258;38.112;2022-09-03T04:37:08;22.25;44.50
64650;HTU21D;51061;45.258;38.112;2022-09-03T04:39:35;22.39;44.29
64650;HTU21D;51061;45.258;38.112;2022-09-03T04:42:01;22.50;44.02
64650;HTU21D;51061;45.258;38.112;2022-09-03T04:44:27;22.58;43.89
64650;HTU21D;51061;45.258;38.112;2022-09-03T04:46:53;22.55;43.98
64650;HTU21D;51061;45.258;38.112;2022-09-03T04:49:19;22.70;43.55
64650;HTU21D;51061;45.258;38.112;2022-09-03T04:51:45;22.78;43.39
64650;HTU21D;51061;45.258;38.112;2022-09-03T04:54:11;22.90;43.13
64650;HTU21D;51061;45.258;38.112;2022-09-03T04:56:37;22.90;43.34
64650;HTU21D;51061;45.258;38.112;2022-09-03T04:59:06;23.03;42.93
64650;HTU21D;51061;45.258;38.112;2022-09-03T05:01:34;23.12;42.84
64650;HTU21D;51061;45.258;38.112;2022-09-03T05:04:01;23.20;42.67
64650;HTU21D;51061;45.258;38.112;2022-09-03T05:06:28;23.29;42.39
64650;HTU21D;51061;45.258;38.112;2022-09-03T05:08:56;23.38;42.26
64650;HTU21D;51061;45.258;38.112;2022-09-03T05:11:24;23.46;42.04
64650;HTU21D;51061;45.258;38.112;2022-09-03T05:13:52;23.53;41.73
64650;HTU21D;51061;45.258;38.112;2022-09-03T05:16:19;23.58;41.54
64650;HTU21D;51061;45.258;38.112;2022-09-03T05:18:45;23.64;41.37
64650;HTU21D;51061;45.258;38.112;2022-09-03T05:21:14;23.68;41.37
64650;HTU21D;51061;45.258;38.112;2022-09-03T05:23:43;23.73;41.25
64650;HTU21D;51061;45.258;38.112;2022-09-03T05:26:15;23.83;41.26
64650;HTU21D;51061;45.258;38.112;2022-09-03T05:28:43;23.95;41.06
64650;HTU21D;51061;45.258;38.112;2022-09-03T05:31:19;24.04;40.94
64650;HTU21D;51061;45.258;38.112;2022-09-03T05:33:48;24.15;40.72
64650;HTU21D;51061;45.258;38.112;2022-09-03T05:36:19;24.23;40.63
64650;HTU21D;51061;45.258;38.112;2022-09-03T05:38:45;24.28;40.49
64650;HTU21D;51061;45.258;38.112;2022-09-03T05:41:13;24.31;40.52
64650;HTU21D;51061;45.258;38.112;2022-09-03T05:43:40;24.39;40.30
64650;HTU21D;51061;45.258;38.112;2022-09-03T05:46:10;24.39;39.98
64650;HTU21D;51061;45.258;38.112;2022-09-03T05:48:39;24.39;39.97
64650;HTU21D;51061;45.258;38.112;2022-09-03T05:51:07;24.41;40.00
64650;HTU21D;51061;45.258;38.112;2022-09-03T05:53:36;24.44;39.87
64650;HTU21D;51061;45.258;38.112;2022-09-03T05:56:11;24.49;39.70
64650;HTU21D;51061;45.258;38.112;2022-09-03T05:58:40;24.59;39.78
64650;HTU21D;51061;45.258;38.112;2022-09-03T06:01:10;24.63;39.60
64650;HTU21D;51061;45.258;38.112;2022-09-03T06:03:36;24.71;39.49
64650;HTU21D;51061;45.258;38.112;2022-09-03T06:06:02;24.75;39.43
64650;HTU21D;51061;45.258;38.112;2022-09-03T06:08:30;24.82;39.36
64650;HTU21D;51061;45.258;38.112;2022-09-03T06:11:00;24.90;39.33
64650;HTU21D;51061;45.258;38.112;2022-09-03T06:13:27;25.01;39.32
64650;HTU21D;51061;45.258;38.112;2022-09-03T06:15:58;25.12;39.16
64650;HTU21D;51061;45.258;38.112;2022-09-03T06:18:26;25.21;39.03
64650;HTU21D;51061;45.258;38.112;2022-09-03T06:21:00;25.27;38.92
64650;HTU21D;51061;45.258;38.112;2022-09-03T06:23:27;25.30;38.83
64650;HTU21D;51061;45.258;38.112;2022-09-03T06:26:13;25.30;38.83
64650;HTU21D;51061;45.258;38.112;2022-09-03T06:28:41;25.35;38.75
64650;HTU21D;51061;45.258;38.112;2022-09-03T06:31:15;25.44;38.83
64650;HTU21D;51061;45.258;38.112;2022-09-03T06:33:42;25.53;38.64
64650;HTU21D;51061;45.258;38.112;2022-09-03T06:36:10;25.64;38.63
64650;HTU21D;51061;45.258;38.112;2022-09-03T06:38:38;25.79;38.62
64650;HTU21D;51061;45.258;38.112;2022-09-03T06:41:12;25.90;38.28
64650;HTU21D;51061;45.258;38.112;2022-09-03T06:43:41;25.92;38.25
64650;HTU21D;51061;45.258;38.112;2022-09-03T06:46:11;25.96;38.08
64650;HTU21D;51061;45.258;38.112;2022-09-03T06:48:38;25.97;37.98
64650;HTU21D;51061;45.258;38.112;2022-09-03T06:51:10;25.97;38.01
64650;HTU21D;51061;45.258;38.112;2022-09-03T06:53:39;26.01;37.87
64650;HTU21D;51061;45.258;38.112;2022-09-03T06:56:07;26.02;37.85
64650;HTU21D;51061;45.258;38.112;2022-09-03T06:58:55;26.08;37.78
64650;HTU21D;51061;45.258;38.112;2022-09-03T07:01:26;26.07;37.71
64650;HTU21D;51061;45.258;38.112;2022-09-03T07:03:57;26.09;37.88
64650;HTU21D;51061;45.258;38.112;2022-09-03T07:06:26;26.15;37.96
64650;HTU21D;51061;45.258;38.112;2022-09-03T07:08:53;26.26;37.88
64650;HTU21D;51061;45.258;38.112;2022-09-03T07:11:23;26.37;37.77
64650;HTU21D;51061;45.258;38.112;2022-09-03T07:13:52;26.46;37.71
64650;HTU21D;51061;45.258;38.112;2022-09-03T07:16:26;26.52;37.60
64650;HTU21D;51061;45.258;38.112;2022-09-03T07:18:52;26.55;37.59
64650;HTU21D;51061;45.258;38.112;2022-09-03T07:21:27;26.64;37.43
64650;HTU21D;51061;45.258;38.112;2022-09-03T07:23:54;26.73;37.43
64650;HTU21D;51061;45.258;38.112;2022-09-03T07:26:23;26.80;37.32
64650;HTU21D;51061;45.258;38.112;2022-09-03T07:28:50;26.86;37.24
64650;HTU21D;51061;45.258;38.112;2022-09-03T07:31:27;26.93;37.24
64650;HTU21D;51061;45.258;38.112;2022-09-03T07:33:57;27.02;36.82
64650;HTU21D;51061;45.258;38.112;2022-09-03T07:36:26;27.04;36.92
64650;HTU21D;51061;45.258;38.112;2022-09-03T07:38:57;27.17;36.89
64650;HTU21D;51061;45.258;38.112;2022-09-03T07:41:24;27.28;36.85
64650;HTU21D;51061;45.258;38.112;2022-09-03T07:43:52;27.42;36.78
64650;HTU21D;51061;45.258;38.112;2022-09-03T07:46:20;27.55;36.66
64650;HTU21D;51061;45.258;38.112;2022-09-03T07:48:55;27.72;36.44
64650;HTU21D;51061;45.258;38.112;2022-09-03T07:51:24;27.89;36.30
64650;HTU21D;51061;45.258;38.112;2022-09-03T07:53:56;28.21;35.65
64650;HTU21D;51061;45.258;38.112;2022-09-03T07:56:26;29.32;33.87
64650;HTU21D;51061;45.258;38.112;2022-09-03T07:58:52;30.36;32.06
64650;HTU21D;51061;45.258;38.112;2022-09-03T08:01:21;30.91;31.06
64650;HTU21D;51061;45.258;38.112;2022-09-03T08:03:49;31.51;30.38
64650;HTU21D;51061;45.258;38.112;2022-09-03T08:06:18;32.12;29.48
64650;HTU21D;51061;45.258;38.112;2022-09-03T08:08:44;32.75;28.45
64650;HTU21D;51061;45.258;38.112;2022-09-03T08:11:14;33.09;27.92
64650;HTU21D;51061;45.258;38.112;2022-09-03T08:13:45;33.58;27.36
64650;HTU21D;51061;45.258;38.112;2022-09-03T08:16:15;34.02;26.17
64650;HTU21D;51061;45.258;38.112;2022-09-03T08:18:41;34.26;25.46
64650;HTU21D;51061;45.258;38.112;2022-09-03T08:21:10;34.70;25.18
64650;HTU21D;51061;45.258;38.112;2022-09-03T08:23:44;35.11;24.35
64650;HTU21D;51061;45.258;38.112;2022-09-03T08:26:10;35.44;24.06
64650;HTU21D;51061;45.258;38.112;2022-09-03T08:28:37;35.90;23.30
64650;HTU21D;51061;45.258;38.112;2022-09-03T08:31:08;35.83;23.60
64650;HTU21D;51061;45.258;38.112;2022-09-03T08:33:38;35.84;23.32
64650;HTU21D;51061;45.258;38.112;2022-09-03T08:38:38;36.11;22.83
64650;HTU21D;51061;45.258;38.112;2022-09-03T08:41:18;36.43;22.85
64650;HTU21D;51061;45.258;38.112;2022-09-03T08:46:47;37.10;22.10
64650;HTU21D;51061;45.258;38.112;2022-09-03T08:51:54;37.43;21.52
64650;HTU21D;51061;45.258;38.112;2022-09-03T08:54:25;37.52;21.37
64650;HTU21D;51061;45.258;38.112;2022-09-03T08:56:52;37.16;21.73
64650;HTU21D;51061;45.258;38.112;2022-09-03T08:59:18;35.89;23.13
64650;HTU21D;51061;45.258;38.112;2022-09-03T09:07:58;35.94;23.23
64650;HTU21D;51061;45.258;38.112;2022-09-03T09:10:48;36.70;22.37
64650;HTU21D;51061;45.258;38.112;2022-09-03T09:13:42;37.62;21.66
64650;HTU21D;51061;45.258;38.112;2022-09-03T09:16:46;37.87;20.99
64650;HTU21D;51061;45.258;38.112;2022-09-03T09:19:17;38.32;20.48
64650;HTU21D;51061;45.258;38.112;2022-09-03T09:21:53;38.46;20.21
64650;HTU21D;51061;45.258;38.112;2022-09-03T09:24:23;39.51;19.57
64650;HTU21D;51061;45.258;38.112;2022-09-03T09:26:57;38.54;20.02
64650;HTU21D;51061;45.258;38.112;2022-09-03T09:29:26;38.59;19.89
64650;HTU21D;51061;45.258;38.112;2022-09-03T09:31:54;38.78;19.44
64650;HTU21D;51061;45.258;38.112;2022-09-03T09:34:21;38.74;19.38
64650;HTU21D;51061;45.258;38.112;2022-09-03T09:36:51;38.90;19.30
64650;HTU21D;51061;45.258;38.112;2022-09-03T09:39:18;39.05;19.23
64650;HTU21D;51061;45.258;38.112;2022-09-03T09:42:01;39.70;18.83
64650;HTU21D;51061;45.258;38.112;2022-09-03T09:44:30;39.78;17.99
64650;HTU21D;51061;45.258;38.112;2022-09-03T09:47:09;39.37;18.55
64650;HTU21D;51061;45.258;38.112;2022-09-03T09:49:50;39.20;18.78
64650;HTU21D;51061;45.258;38.112;2022-09-03T09:52:17;39.09;18.89
64650;HTU21D;51061;45.258;38.112;2022-09-03T09:54:46;39.49;18.64
64650;HTU21D;51061;45.258;38.112;2022-09-03T09:57:17;39.97;18.23
64650;HTU21D;51061;45.258;38.112;2022-09-03T09:59:46;40.76;17.45
64650;HTU21D;51061;45.258;38.112;2022-09-03T10:02:25;41.74;16.79
64650;HTU21D;51061;45.258;38.112;2022-09-03T10:05:18;41.96;16.17
64650;HTU21D;51061;45.258;38.112;2022-09-03T10:07:40;41.88;16.19
64650;HTU21D;51061;45.258;38.112;2022-09-03T10:10:21;41.71;16.31
64650;HTU21D;51061;45.258;38.112;2022-09-03T10:12:52;41.28;16.58
64650;HTU21D;51061;45.258;38.112;2022-09-03T10:18:38;42.35;16.07
64650;HTU21D;51061;45.258;38.112;2022-09-03T10:21:11;42.95;15.37
64650;HTU21D;51061;45.258;38.112;2022-09-03T10:26:44;43.99;14.48
64650;HTU21D;51061;45.258;38.112;2022-09-03T10:29:16;43.96;14.07
64650;HTU21D;51061;45.258;38.112;2022-09-03T10:31:58;43.41;14.61
64650;HTU21D;51061;45.258;38.112;2022-09-03T10:34:33;43.67;14.47
64650;HTU21D;51061;45.258;38.112;2022-09-03T10:37:16;43.94;13.21
64650;HTU21D;51061;45.258;38.112;2022-09-03T10:40:19;43.36;14.55
64650;HTU21D;51061;45.258;38.112;2022-09-03T10:43:11;43.28;14.81
64650;HTU21D;51061;45.258;38.112;2022-09-03T10:51:34;43.98;14.26
64650;HTU21D;51061;45.258;38.112;2022-09-03T11:06:03;43.82;14.32
64650;HTU21D;51061;45.258;38.112;2022-09-03T11:08:40;43.66;14.38
64650;HTU21D;51061;45.258;38.112;2022-09-03T11:11:15;43.91;14.20
64650;HTU21D;51061;45.258;38.112;2022-09-03T11:13:46;44.17;14.10
64650;HTU21D;51061;45.258;38.112;2022-09-03T11:16:20;44.79;13.63
64650;HTU21D;51061;45.258;38.112;2022-09-03T11:18:56;44.91;13.40
64650;HTU21D;51061;45.258;38.112;2022-09-03T11:21:27;45.24;13.12
64650;HTU21D;51061;45.258;38.112;2022-09-03T11:24:05;45.59;13.01
64650;HTU21D;51061;45.258;38.112;2022-09-03T11:26:34;45.90;12.72
64650;HTU21D;51061;45.258;38.112;2022-09-03T11:32:07;46.72;11.81
64650;HTU21D;51061;45.258;38.112;2022-09-03T11:34:47;46.72;12.00
64650;HTU21D;51061;45.258;38.112;2022-09-03T11:37:24;45.20;13.00
64650;HTU21D;51061;45.258;38.112;2022-09-03T11:42:36;42.23;15.93
64650;HTU21D;51061;45.258;38.112;2022-09-03T11:47:48;40.27;17.88
64650;HTU21D;51061;45.258;38.112;2022-09-03T11:50:31;39.34;18.89
64650;HTU21D;51061;45.258;38.112;2022-09-03T11:55:53;38.21;20.35
64650;HTU21D;51061;45.258;38.112;2022-09-03T11:59:02;37.65;21.08
64650;HTU21D;51061;45.258;38.112;2022-09-03T12:01:30;37.44;21.53
64650;HTU21D;51061;45.258;38.112;2022-09-03T12:04:07;37.10;21.96
64650;HTU21D;51061;45.258;38.112;2022-09-03T12:12:43;36.28;23.18
64650;HTU21D;51061;45.258;38.112;2022-09-03T12:15:59;36.01;23.53
64650;HTU21D;51061;45.258;38.112;2022-09-03T12:18:09;35.74;23.95
64650;HTU21D;51061;45.258;38.112;2022-09-03T12:23:49;35.39;24.55
64650;HTU21D;51061;45.258;38.112;2022-09-03T12:26:22;35.25;24.78
64650;HTU21D;51061;45.258;38.112;2022-09-03T12:28:54;35.10;25.13
64650;HTU21D;51061;45.258;38.112;2022-09-03T12:31:31;34.91;25.34
64650;HTU21D;51061;45.258;38.112;2022-09-03T12:34:19;34.65;25.67
64650;HTU21D;51061;45.258;38.112;2022-09-03T12:36:48;34.57;26.04
64650;HTU21D;51061;45.258;38.112;2022-09-03T12:39:19;34.46;26.23
64650;HTU21D;51061;45.258;38.112;2022-09-03T12:44:31;34.26;26.60
64650;HTU21D;51061;45.258;38.112;2022-09-03T12:49:39;34.06;27.10
64650;HTU21D;51061;45.258;38.112;2022-09-03T12:55:04;33.97;27.41
64650;HTU21D;51061;45.258;38.112;2022-09-03T12:57:39;33.94;27.64
64650;HTU21D;51061;45.258;38.112;2022-09-03T13:00:09;33.66;27.73
64650;HTU21D;51061;45.258;38.112;2022-09-03T13:02:48;33.73;27.81
64650;HTU21D;51061;45.258;38.112;2022-09-03T13:05:18;33.67;28.16
64650;HTU21D;51061;45.258;38.112;2022-09-03T13:07:51;33.62;28.39
64650;HTU21D;51061;45.258;38.112;2022-09-03T13:10:30;33.57;28.53
64650;HTU21D;51061;45.258;38.112;2022-09-03T13:13:02;33.51;28.77
64650;HTU21D;51061;45.258;38.112;2022-09-03T13:15:29;33.49;29.14
64650;HTU21D;51061;45.258;38.112;2022-09-03T13:18:23;33.43;29.16
64650;HTU21D;51061;45.258;38.112;2022-09-03T13:21:06;33.36;29.33
64650;HTU21D;51061;45.258;38.112;2022-09-03T13:29:18;33.18;29.82
64650;HTU21D;51061;45.258;38.112;2022-09-03T13:32:16;33.16;30.03
64650;HTU21D;51061;45.258;38.112;2022-09-03T13:34:47;33.06;30.15
64650;HTU21D;51061;45.258;38.112;2022-09-03T13:40:34;32.83;30.45
64650;HTU21D;51061;45.258;38.112;2022-09-03T13:43:44;32.78;30.69
64650;HTU21D;51061;45.258;38.112;2022-09-03T13:46:30;32.76;30.77
64650;HTU21D;51061;45.258;38.112;2022-09-03T13:49:12;32.71;30.94
64650;HTU21D;51061;45.258;38.112;2022-09-03T13:52:03;32.69;31.13
64650;HTU21D;51061;45.258;38.112;2022-09-03T13:54:42;32.62;31.09
64650;HTU21D;51061;45.258;38.112;2022-09-03T14:14:12;32.42;32.15
64650;HTU21D;51061;45.258;38.112;2022-09-03T14:17:29;32.38;32.33
64650;HTU21D;51061;45.258;38.112;2022-09-03T14:22:19;32.19;32.56
64650;HTU21D;51061;45.258;38.112;2022-09-03T14:24:58;32.20;32.74
64650;HTU21D;51061;45.258;38.112;2022-09-03T14:27:28;32.19;32.77
64650;HTU21D;51061;45.258;38.112;2022-09-03T14:29:59;32.15;32.69
64650;HTU21D;51061;45.258;38.112;2022-09-03T14:46:30;31.81;33.06
64650;HTU21D;51061;45.258;38.112;2022-09-03T14:54:36;31.66;33.64
64650;HTU21D;51061;45.258;38.112;2022-09-03T14:57:24;31.61;33.65
64650;HTU21D;51061;45.258;38.112;2022-09-03T15:00:08;31.56;34.02
64650;HTU21D;51061;45.258;38.112;2022-09-03T15:11:18;31.49;34.63
64650;HTU21D;51061;45.258;38.112;2022-09-03T15:13:51;31.53;34.59
64650;HTU21D;51061;45.258;38.112;2022-09-03T15:21:57;31.59;34.82
64650;HTU21D;51061;45.258;38.112;2022-09-03T15:27:51;31.61;34.90
64650;HTU21D;51061;45.258;38.112;2022-09-03T15:30:12;31.58;34.99
64650;HTU21D;51061;45.258;38.112;2022-09-03T15:32:50;31.56;34.98
64650;HTU21D;51061;45.258;38.112;2022-09-03T15:38:56;31.46;35.08
64650;HTU21D;51061;45.258;38.112;2022-09-03T15:44:51;31.39;35.49
64650;HTU21D;51061;45.258;38.112;2022-09-03T15:47:56;31.34;35.56
64650;HTU21D;51061;45.258;38.112;2022-09-03T15:50:48;31.29;35.68
64650;HTU21D;51061;45.258;38.112;2022-09-03T15:55:42;31.27;36.28
64650;HTU21D;51061;45.258;38.112;2022-09-03T15:58:13;31.22;36.53
64650;HTU21D;51061;45.258;38.112;2022-09-03T16:03:11;31.09;37.17
64650;HTU21D;51061;45.258;38.112;2022-09-03T16:05:56;31.02;37.21
64650;HTU21D;51061;45.258;38.112;2022-09-03T16:08:39;30.96;37.33
64650;HTU21D;51061;45.258;38.112;2022-09-03T16:16:26;30.90;38.07
64650;HTU21D;51061;45.258;38.112;2022-09-03T16:19:20;30.84;38.24
64650;HTU21D;51061;45.258;38.112;2022-09-03T16:21:50;30.85;38.68
64650;HTU21D;51061;45.258;38.112;2022-09-03T16:24:53;30.81;38.51
64650;HTU21D;51061;45.258;38.112;2022-09-03T16:30:13;30.75;38.94
64650;HTU21D;51061;45.258;38.112;2022-09-03T16:47:20;30.62;39.33
64650;HTU21D;51061;45.258;38.112;2022-09-03T16:50:32;30.54;39.44
64650;HTU21D;51061;45.258;38.112;2022-09-03T16:53:35;30.52;39.59
64650;HTU21D;51061;45.258;38.112;2022-09-03T16:59:48;30.44;39.72
64650;HTU21D;51061;45.258;38.112;2022-09-03T17:07:53;30.30;40.09
64650;HTU21D;51061;45.258;38.112;2022-09-03T17:10:35;30.24;40.20
64650;HTU21D;51061;45.258;38.112;2022-09-03T17:22:01;30.01;40.26
64650;HTU21D;51061;45.258;38.112;2022-09-03T17:24:42;29.94;40.40
64650;HTU21D;51061;45.258;38.112;2022-09-03T17:27:38;29.85;40.52
64650;HTU21D;51061;45.258;38.112;2022-09-03T17:36:07;29.63;41.31
64650;HTU21D;51061;45.258;38.112;2022-09-03T17:39:05;29.54;41.44
64650;HTU21D;51061;45.258;38.112;2022-09-03T17:49:31;29.37;42.19
64650;HTU21D;51061;45.258;38.112;2022-09-03T17:52:07;29.32;42.24
64650;HTU21D;51061;45.258;38.112;2022-09-03T17:54:42;29.28;42.65
64650;HTU21D;51061;45.258;38.112;2022-09-03T17:57:17;29.21;42.68
64650;HTU21D;51061;45.258;38.112;2022-09-03T18:00:05;29.14;42.69
64650;HTU21D;51061;45.258;38.112;2022-09-03T18:02:42;29.09;43.17
64650;HTU21D;51061;45.258;38.112;2022-09-03T18:05:29;29.01;43.26
64650;HTU21D;51061;45.258;38.112;2022-09-03T18:08:07;28.99;43.58
64650;HTU21D;51061;45.258;38.112;2022-09-03T18:11:09;28.92;43.39
64650;HTU21D;51061;45.258;38.112;2022-09-03T18:13:45;28.86;43.74
64650;HTU21D;51061;45.258;38.112;2022-09-03T18:19:09;28.76;43.97
64650;HTU21D;51061;45.258;38.112;2022-09-03T18:21:43;28.72;44.19
64650;HTU21D;51061;45.258;38.112;2022-09-03T18:24:31;28.65;44.57
64650;HTU21D;51061;45.258;38.112;2022-09-03T18:30:17;28.53;44.87
64650;HTU21D;51061;45.258;38.112;2022-09-03T18:33:02;28.44;45.16
64650;HTU21D;51061;45.258;38.112;2022-09-03T18:35:47;28.35;45.74
64650;HTU21D;51061;45.258;38.112;2022-09-03T18:38:47;28.27;45.54
64650;HTU21D;51061;45.258;38.112;2022-09-03T18:45:30;28.10;45.66
64650;HTU21D;51061;45.258;38.112;2022-09-03T18:48:21;28.04;45.71
64650;HTU21D;51061;45.258;38.112;2022-09-03T18:51:26;27.97;45.69
64650;HTU21D;51061;45.258;38.112;2022-09-03T19:00:22;27.82;46.51
64650;HTU21D;51061;45.258;38.112;2022-09-03T19:09:27;27.66;46.77
64650;HTU21D;51061;45.258;38.112;2022-09-03T19:12:27;27.61;47.19
64650;HTU21D;51061;45.258;38.112;2022-09-03T19:15:43;27.53;47.09
64650;HTU21D;51061;45.258;38.112;2022-09-03T19:22:11;27.40;47.19
64650;HTU21D;51061;45.258;38.112;2022-09-03T19:25:08;27.39;47.20
64650;HTU21D;51061;45.258;38.112;2022-09-03T19:30:45;27.31;47.20
64650;HTU21D;51061;45.258;38.112;2022-09-03T19:36:50;27.23;47.38
64650;HTU21D;51061;45.258;38.112;2022-09-03T19:46:18;27.12;47.36
64650;HTU21D;51061;45.258;38.112;2022-09-03T19:49:15;27.09;47.18
64650;HTU21D;51061;45.258;38.112;2022-09-03T19:52:49;27.11;47.05
64650;HTU21D;51061;45.258;38.112;2022-09-03T19:55:25;27.12;46.99
64650;HTU21D;51061;45.258;38.112;2022-09-03T19:58:12;27.15;46.96
64650;HTU21D;51061;45.258;38.112;2022-09-03T20:00:58;27.13;46.98
64650;HTU21D;51061;45.258;38.112;2022-09-03T20:03:42;27.08;46.96
64650;HTU21D;51061;45.258;38.112;2022-09-03T20:06:28;27.04;46.89
64650;HTU21D;51061;45.258;38.112;2022-09-03T20:09:14;26.81;46.95
64650;HTU21D;51061;45.258;38.112;2022-09-03T20:12:04;26.87;46.44
64650;HTU21D;51061;45.258;38.112;2022-09-03T20:14:34;26.87;46.54
64650;HTU21D;51061;45.258;38.112;2022-09-03T20:17:09;26.86;46.68
64650;HTU21D;51061;45.258;38.112;2022-09-03T20:20:08;26.79;46.89
64650;HTU21D;51061;45.258;38.112;2022-09-03T20:23:08;26.73;46.88
64650;HTU21D;51061;45.258;38.112;2022-09-03T20:31:27;26.58;46.64
64650;HTU21D;51061;45.258;38.112;2022-09-03T20:40:10;26.43;46.46
64650;HTU21D;51061;45.258;38.112;2022-09-03T20:45:31;26.38;46.35
64650;HTU21D;51061;45.258;38.112;2022-09-03T20:48:35;26.28;46.48
64650;HTU21D;51061;45.258;38.112;2022-09-03T20:51:16;26.28;46.44
64650;HTU21D;51061;45.258;38.112;2022-09-03T20:56:37;26.24;46.38
64650;HTU21D;51061;45.258;38.112;2022-09-03T21:05:21;26.15;46.33
64650;HTU21D;51061;45.258;38.112;2022-09-03T21:08:13;26.12;46.31
64650;HTU21D;51061;45.258;38.112;2022-09-03T21:22:03;25.94;46.22
64650;HTU21D;51061;45.258;38.112;2022-09-03T21:28:27;25.82;46.51
64650;HTU21D;51061;45.258;38.112;2022-09-03T21:33:38;25.82;46.80